createdAt,value
2018-08-25T00:00:36.358Z,0.00
2018-08-25T00:01:36.396Z,0.00
2018-08-25T00:02:36.434Z,0.00
2018-08-25T00:03:36.473Z,0.00
2018-08-25T00:04:36.512Z,0.00
2018-08-25T00:05:36.553Z,0.00
2018-08-25T00:06:36.592Z,0.00
2018-08-25T00:07:36.628Z,0.00
2018-08-25T00:08:36.667Z,0.00
2018-08-25T00:09:36.706Z,0.00
2018-08-25T00:10:36.745Z,0.00
2018-08-25T00:11:36.782Z,0.00
2018-08-25T00:12:36.820Z,0.00
2018-08-25T00:13:36.860Z,0.00
2018-08-25T00:14:36.904Z,0.00
2018-08-25T00:15:36.937Z,0.00
2018-08-25T00:16:36.977Z,0.00
2018-08-25T00:17:37.019Z,0.00
2018-08-25T00:18:37.052Z,0.00
2018-08-25T00:19:37.089Z,0.00
2018-08-25T00:20:37.127Z,0.00
2018-08-25T00:21:37.167Z,0.00
2018-08-25T00:22:37.212Z,0.00
2018-08-25T00:23:37.394Z,0.00
2018-08-25T00:24:37.494Z,0.00
2018-08-25T00:25:37.530Z,0.00
2018-08-25T00:26:37.360Z,0.00
2018-08-25T00:27:37.398Z,0.00
2018-08-25T00:28:37.438Z,0.00
2018-08-25T00:29:37.475Z,0.00
2018-08-25T00:30:37.514Z,0.00
2018-08-25T00:31:37.561Z,0.00
2018-08-25T00:32:37.591Z,0.00
2018-08-25T00:33:37.628Z,0.00
2018-08-25T00:34:37.695Z,0.00
2018-08-25T00:35:37.707Z,0.00
2018-08-25T00:36:37.750Z,0.00
2018-08-25T00:37:37.792Z,0.00
2018-08-25T00:38:37.821Z,0.00
2018-08-25T00:39:37.859Z,0.00
2018-08-25T00:40:37.923Z,0.00
2018-08-25T00:41:37.936Z,0.00
2018-08-25T00:42:37.977Z,0.00
2018-08-25T00:43:38.016Z,0.00
2018-08-25T00:44:38.055Z,0.00
2018-08-25T00:45:38.089Z,0.00
2018-08-25T00:46:38.134Z,0.00
2018-08-25T00:47:38.184Z,0.00
2018-08-25T00:48:38.204Z,0.00
2018-08-25T00:49:38.244Z,0.00
2018-08-25T00:50:38.284Z,0.00
2018-08-25T00:51:38.319Z,0.00
2018-08-25T00:52:38.361Z,0.00
2018-08-25T00:53:38.405Z,0.00
2018-08-25T00:54:38.438Z,0.00
2018-08-25T00:55:38.476Z,0.00
2018-08-25T00:56:38.536Z,0.00
2018-08-25T00:57:38.553Z,0.00
2018-08-25T00:58:38.591Z,0.00
2018-08-25T00:59:38.628Z,0.00
2018-08-25T01:00:38.669Z,0.00
2018-08-25T01:01:38.706Z,0.00
2018-08-25T01:02:38.749Z,0.00
2018-08-25T01:03:38.782Z,0.00
2018-08-25T01:04:38.821Z,0.00
2018-08-25T01:05:38.860Z,0.00
2018-08-25T01:06:38.899Z,0.00
2018-08-25T01:07:38.936Z,0.00
2018-08-25T01:08:38.973Z,0.00
2018-08-25T01:09:39.014Z,0.00
2018-08-25T01:10:39.053Z,0.00
2018-08-25T01:11:39.089Z,0.00
2018-08-25T01:12:39.139Z,0.00
2018-08-25T01:13:39.166Z,0.00
2018-08-25T01:14:39.210Z,0.00
2018-08-25T01:15:39.294Z,0.00
2018-08-25T01:16:39.284Z,0.00
2018-08-25T01:17:39.372Z,0.00
2018-08-25T01:18:39.361Z,0.00
2018-08-25T01:19:39.400Z,0.00
2018-08-25T01:20:39.435Z,0.00
2018-08-25T01:21:39.475Z,0.00
2018-08-25T01:22:39.551Z,0.00
2018-08-25T01:23:39.551Z,0.00
2018-08-25T01:24:39.590Z,0.00
2018-08-25T01:25:39.628Z,0.00
2018-08-25T01:26:39.673Z,0.00
2018-08-25T01:27:39.705Z,0.00
2018-08-25T01:28:39.743Z,0.00
2018-08-25T01:29:39.782Z,0.00
2018-08-25T01:30:39.820Z,0.00
2018-08-25T01:31:39.864Z,0.00
2018-08-25T01:32:39.897Z,0.00
2018-08-25T01:33:39.936Z,0.00
2018-08-25T01:34:39.991Z,0.00
2018-08-25T01:35:40.012Z,0.00
2018-08-25T01:36:40.051Z,0.00
2018-08-25T01:37:40.095Z,0.00
2018-08-25T01:38:40.128Z,0.00
2018-08-25T01:39:40.167Z,0.00
2018-08-25T01:40:40.206Z,0.00
2018-08-25T01:41:40.265Z,0.00
2018-08-25T01:42:40.282Z,0.00
2018-08-25T01:43:40.320Z,0.00
2018-08-25T01:44:40.359Z,0.00
2018-08-25T01:45:40.398Z,0.00
2018-08-25T01:46:40.436Z,0.00
2018-08-25T01:47:40.474Z,0.00
2018-08-25T01:48:40.513Z,0.00
2018-08-25T01:49:40.551Z,0.00
2018-08-25T01:50:40.596Z,0.00
2018-08-25T01:51:40.628Z,0.00
2018-08-25T01:52:40.666Z,0.00
2018-08-25T01:53:40.707Z,0.00
2018-08-25T01:54:40.744Z,0.00
2018-08-25T01:55:40.783Z,0.00
2018-08-25T01:56:40.829Z,0.00
2018-08-25T01:57:40.859Z,0.00
2018-08-25T01:58:40.897Z,0.00
2018-08-25T01:59:40.935Z,0.00
2018-08-25T02:00:40.982Z,0.00
2018-08-25T02:01:41.013Z,0.00
2018-08-25T02:02:41.073Z,0.00
2018-08-25T02:03:41.091Z,0.00
2018-08-25T02:04:41.128Z,0.00
2018-08-25T02:05:41.193Z,0.00
2018-08-25T02:06:41.205Z,0.00
2018-08-25T02:07:41.244Z,0.00
2018-08-25T02:08:41.282Z,0.00
2018-08-25T02:09:41.321Z,0.00
2018-08-25T02:10:41.362Z,0.00
2018-08-25T02:11:41.399Z,0.00
2018-08-25T02:12:41.437Z,0.00
2018-08-25T02:13:41.483Z,0.00
2018-08-25T02:14:41.513Z,0.00
2018-08-25T02:15:41.551Z,0.00
2018-08-25T02:16:41.589Z,0.00
2018-08-25T02:17:41.630Z,0.00
2018-08-25T02:18:41.667Z,0.00
2018-08-25T02:19:41.705Z,0.00
2018-08-25T02:20:41.751Z,0.00
2018-08-25T02:21:41.782Z,0.00
2018-08-25T02:22:41.820Z,0.00
2018-08-25T02:23:41.858Z,0.00
2018-08-25T02:24:41.897Z,0.00
2018-08-25T02:25:41.935Z,0.00
2018-08-25T02:26:41.973Z,0.00
2018-08-25T02:27:42.012Z,0.00
2018-08-25T02:28:42.050Z,0.00
2018-08-25T02:29:42.090Z,0.00
2018-08-25T02:30:42.228Z,0.00
2018-08-25T02:31:42.165Z,0.00
2018-08-25T02:32:42.209Z,0.00
2018-08-25T02:33:42.243Z,0.00
2018-08-25T02:34:42.283Z,0.00
2018-08-25T02:35:42.318Z,0.00
2018-08-25T02:36:42.359Z,0.00
2018-08-25T02:37:42.397Z,0.00
2018-08-25T02:38:42.486Z,0.00
2018-08-25T02:39:42.479Z,0.00
2018-08-25T02:40:42.517Z,0.00
2018-08-25T02:41:42.550Z,0.00
2018-08-25T02:42:42.590Z,0.00
2018-08-25T02:43:42.626Z,0.00
2018-08-25T02:44:42.677Z,0.00
2018-08-25T02:45:42.706Z,0.00
2018-08-25T02:46:42.744Z,0.00
2018-08-25T02:47:42.780Z,0.00
2018-08-25T02:48:42.824Z,0.00
2018-08-25T02:49:42.865Z,0.00
2018-08-25T02:50:42.898Z,0.00
2018-08-25T02:51:42.937Z,0.00
2018-08-25T02:52:42.972Z,0.00
2018-08-25T02:53:43.015Z,0.00
2018-08-25T02:54:43.053Z,0.00
2018-08-25T02:55:43.106Z,0.00
2018-08-25T02:56:43.126Z,0.00
2018-08-25T02:57:43.164Z,0.00
2018-08-25T02:58:43.202Z,0.00
2018-08-25T02:59:43.240Z,0.00
2018-08-25T03:00:43.286Z,0.00
2018-08-25T03:01:43.319Z,0.00
2018-08-25T03:02:43.357Z,0.00
2018-08-25T03:03:43.395Z,0.00
2018-08-25T03:04:43.432Z,0.00
2018-08-25T03:05:43.472Z,0.00
2018-08-25T03:06:43.651Z,0.00
2018-08-25T03:07:43.550Z,0.00
2018-08-25T03:08:43.590Z,0.00
2018-08-25T03:09:43.625Z,0.00
2018-08-25T03:10:43.663Z,0.00
2018-08-25T03:11:43.754Z,0.00
2018-08-25T03:12:43.739Z,0.00
2018-08-25T03:13:43.804Z,0.00
2018-08-25T03:14:43.818Z,0.00
2018-08-25T03:15:43.856Z,0.00
2018-08-25T03:16:43.896Z,0.00
2018-08-25T03:17:43.932Z,0.00
2018-08-25T03:18:43.971Z,0.00
2018-08-25T03:19:44.008Z,0.00
2018-08-25T03:20:44.060Z,0.00
2018-08-25T03:21:44.097Z,0.00
2018-08-25T03:22:44.123Z,0.00
2018-08-25T03:23:44.162Z,0.00
2018-08-25T03:24:44.202Z,0.00
2018-08-25T03:25:44.243Z,0.00
2018-08-25T03:26:44.276Z,0.00
2018-08-25T03:27:44.313Z,0.00
2018-08-25T03:28:44.352Z,0.00
2018-08-25T03:29:44.396Z,0.00
2018-08-25T03:30:44.428Z,0.00
2018-08-25T03:31:44.466Z,0.00
2018-08-25T03:32:44.505Z,0.00
2018-08-25T03:33:44.545Z,0.00
2018-08-25T03:34:44.584Z,0.00
2018-08-25T03:35:44.620Z,0.00
2018-08-25T03:36:44.658Z,0.00
2018-08-25T03:37:44.698Z,0.00
2018-08-25T03:38:44.735Z,0.00
2018-08-25T03:39:44.783Z,0.00
2018-08-25T03:40:44.812Z,0.00
2018-08-25T03:41:44.851Z,0.00
2018-08-25T03:42:44.889Z,0.00
2018-08-25T03:43:44.926Z,0.00
2018-08-25T03:44:44.966Z,0.00
2018-08-25T03:45:45.010Z,0.00
2018-08-25T03:46:45.042Z,0.00
2018-08-25T03:47:45.079Z,0.00
2018-08-25T03:48:45.118Z,0.00
2018-08-25T03:49:45.156Z,0.00
2018-08-25T03:50:45.194Z,0.00
2018-08-25T03:51:45.232Z,0.00
2018-08-25T03:52:45.270Z,0.00
2018-08-25T03:53:45.309Z,0.00
2018-08-25T03:54:45.348Z,0.00
2018-08-25T03:55:45.390Z,0.00
2018-08-25T03:56:45.424Z,0.00
2018-08-25T03:57:45.463Z,0.00
2018-08-25T03:58:45.500Z,4.00
2018-08-25T03:59:45.537Z,4.00
2018-08-25T04:00:45.576Z,4.00
2018-08-25T04:01:45.613Z,4.00
2018-08-25T04:02:45.653Z,4.00
2018-08-25T04:03:45.689Z,4.00
2018-08-25T04:04:45.729Z,8.00
2018-08-25T04:05:45.771Z,4.00
2018-08-25T04:06:45.805Z,8.00
2018-08-25T04:07:45.843Z,8.00
2018-08-25T04:08:45.882Z,8.00
2018-08-25T04:09:45.928Z,12.00
2018-08-25T04:10:45.967Z,12.00
2018-08-25T04:11:45.996Z,12.00
2018-08-25T04:12:46.036Z,16.00
2018-08-25T04:13:46.075Z,20.00
2018-08-25T04:14:46.133Z,28.00
2018-08-25T04:15:46.150Z,32.00
2018-08-25T04:16:46.192Z,40.00
2018-08-25T04:17:46.237Z,48.00
2018-08-25T04:18:46.273Z,56.00
2018-08-25T04:19:46.304Z,64.00
2018-08-25T04:20:46.347Z,76.00
2018-08-25T04:21:46.381Z,84.00
2018-08-25T04:22:46.420Z,92.00
2018-08-25T04:23:46.459Z,100.00
2018-08-25T04:24:46.505Z,100.00
2018-08-25T04:25:46.540Z,100.00
2018-08-25T04:26:46.574Z,96.00
2018-08-25T04:27:46.611Z,92.00
2018-08-25T04:28:46.651Z,88.00
2018-08-25T04:29:46.687Z,84.00
2018-08-25T04:30:46.731Z,88.00
2018-08-25T04:31:46.764Z,96.00
2018-08-25T04:32:46.803Z,104.00
2018-08-25T04:33:46.839Z,116.00
2018-08-25T04:34:46.883Z,124.00
2018-08-25T04:35:46.916Z,156.00
2018-08-25T04:36:46.955Z,200.00
2018-08-25T04:37:46.999Z,252.00
2018-08-25T04:38:47.034Z,308.00
2018-08-25T04:39:47.071Z,376.00
2018-08-25T04:40:47.109Z,444.00
2018-08-25T04:41:47.148Z,524.00
2018-08-25T04:42:47.186Z,592.00
2018-08-25T04:43:47.225Z,680.00
2018-08-25T04:44:47.264Z,760.00
2018-08-25T04:45:47.302Z,836.00
2018-08-25T04:46:47.341Z,912.00
2018-08-25T04:47:47.379Z,1008.00
2018-08-25T04:48:47.416Z,1100.00
2018-08-25T04:49:47.456Z,1200.00
2018-08-25T04:50:47.493Z,1324.00
2018-08-25T04:51:47.531Z,1452.00
2018-08-25T04:52:47.579Z,1568.00
2018-08-25T04:53:47.611Z,1672.00
2018-08-25T04:54:47.648Z,1788.00
2018-08-25T04:55:47.685Z,1896.00
2018-08-25T04:56:47.733Z,2004.00
2018-08-25T04:57:47.762Z,2092.00
2018-08-25T04:58:47.954Z,2176.00
2018-08-25T04:59:47.838Z,2260.00
2018-08-25T05:00:47.877Z,2336.00
2018-08-25T05:01:47.968Z,2412.00
2018-08-25T05:02:47.967Z,2488.00
2018-08-25T05:03:47.991Z,2564.00
2018-08-25T05:04:48.029Z,2644.00
2018-08-25T05:05:48.072Z,2728.00
2018-08-25T05:06:48.107Z,2812.00
2018-08-25T05:07:48.210Z,2908.00
2018-08-25T05:08:48.185Z,3024.00
2018-08-25T05:09:48.222Z,3160.00
2018-08-25T05:10:48.260Z,3244.00
2018-08-25T05:11:48.298Z,3304.00
2018-08-25T05:12:48.336Z,3356.00
2018-08-25T05:13:48.375Z,3408.00
2018-08-25T05:14:48.414Z,3540.00
2018-08-25T05:15:48.458Z,3480.00
2018-08-25T05:16:48.491Z,3260.00
2018-08-25T05:17:48.528Z,3028.00
2018-08-25T05:18:48.567Z,2800.00
2018-08-25T05:19:48.605Z,2624.00
2018-08-25T05:20:48.643Z,2484.00
2018-08-25T05:21:48.713Z,2376.00
2018-08-25T05:22:48.720Z,2364.00
2018-08-25T05:23:48.759Z,2412.00
2018-08-25T05:24:48.797Z,2452.00
2018-08-25T05:25:48.838Z,2380.00
2018-08-25T05:26:48.876Z,2360.00
2018-08-25T05:27:48.912Z,2292.00
2018-08-25T05:28:48.952Z,2292.00
2018-08-25T05:29:48.990Z,2452.00
2018-08-25T05:30:49.028Z,2760.00
2018-08-25T05:31:49.067Z,3248.00
2018-08-25T05:32:49.106Z,3904.00
2018-08-25T05:33:49.145Z,4540.00
2018-08-25T05:34:49.185Z,4960.00
2018-08-25T05:35:49.221Z,5232.00
2018-08-25T05:36:49.260Z,5508.00
2018-08-25T05:37:49.301Z,5672.00
2018-08-25T05:38:49.337Z,5692.00
2018-08-25T05:39:49.377Z,5844.00
2018-08-25T05:40:49.414Z,6108.00
2018-08-25T05:41:49.452Z,6168.00
2018-08-25T05:42:49.495Z,5888.00
2018-08-25T05:43:49.530Z,5620.00
2018-08-25T05:44:49.568Z,5616.00
2018-08-25T05:45:49.609Z,5900.00
2018-08-25T05:46:49.663Z,6280.00
2018-08-25T05:47:49.690Z,6432.00
2018-08-25T05:48:49.726Z,6436.00
2018-08-25T05:49:49.764Z,6452.00
2018-08-25T05:50:49.802Z,6500.00
2018-08-25T05:51:49.840Z,6660.00
2018-08-25T05:52:49.880Z,6820.00
2018-08-25T05:53:49.918Z,6896.00
2018-08-25T05:54:49.964Z,6868.00
2018-08-25T05:55:49.994Z,6784.00
2018-08-25T05:56:50.037Z,6756.00
2018-08-25T05:57:50.078Z,6752.00
2018-08-25T05:58:50.113Z,6740.00
2018-08-25T05:59:50.150Z,6788.00
2018-08-25T06:00:50.193Z,6800.00
2018-08-25T06:01:50.230Z,6804.00
2018-08-25T06:02:50.266Z,6816.00
2018-08-25T06:03:50.313Z,6872.00
2018-08-25T06:04:50.347Z,7004.00
2018-08-25T06:05:50.392Z,7152.00
2018-08-25T06:06:50.422Z,7264.00
2018-08-25T06:07:50.460Z,7340.00
2018-08-25T06:08:50.499Z,7376.00
2018-08-25T06:09:50.588Z,7556.00
2018-08-25T06:10:50.587Z,7688.00
2018-08-25T06:11:50.617Z,7832.00
2018-08-25T06:12:50.654Z,7908.00
2018-08-25T06:13:50.693Z,7960.00
2018-08-25T06:14:50.731Z,7980.00
2018-08-25T06:15:50.772Z,7940.00
2018-08-25T06:16:50.811Z,7796.00
2018-08-25T06:17:50.888Z,7660.00
2018-08-25T06:18:50.889Z,7564.00
2018-08-25T06:19:50.929Z,7556.00
2018-08-25T06:20:50.965Z,7596.00
2018-08-25T06:21:51.010Z,7700.00
2018-08-25T06:22:51.044Z,7880.00
2018-08-25T06:23:51.081Z,8192.00
2018-08-25T06:24:51.125Z,8608.00
2018-08-25T06:25:51.161Z,9116.00
2018-08-25T06:26:51.201Z,9612.00
2018-08-25T06:27:51.248Z,9800.00
2018-08-25T06:28:51.282Z,9872.00
2018-08-25T06:29:51.400Z,9600.00
2018-08-25T06:30:51.358Z,9296.00
2018-08-25T06:31:51.395Z,9236.00
2018-08-25T06:32:51.434Z,9040.00
2018-08-25T06:33:51.478Z,8500.00
2018-08-25T06:34:51.516Z,8116.00
2018-08-25T06:35:51.598Z,8024.00
2018-08-25T06:36:51.591Z,8076.00
2018-08-25T06:37:51.630Z,8160.00
2018-08-25T06:38:51.670Z,8864.00
2018-08-25T06:39:51.707Z,9620.00
2018-08-25T06:40:51.755Z,9020.00
2018-08-25T06:41:51.787Z,8640.00
2018-08-25T06:42:51.825Z,9024.00
2018-08-25T06:43:51.868Z,9696.00
2018-08-25T06:44:51.977Z,10228.00
2018-08-25T06:45:51.949Z,10200.00
2018-08-25T06:46:51.984Z,9216.00
2018-08-25T06:47:52.023Z,8200.00
2018-08-25T06:48:52.075Z,8688.00
2018-08-25T06:49:52.103Z,9916.00
2018-08-25T06:50:52.143Z,11008.00
2018-08-25T06:51:52.182Z,11744.00
2018-08-25T06:52:52.221Z,11680.00
2018-08-25T06:53:52.262Z,11064.00
2018-08-25T06:54:52.301Z,10128.00
2018-08-25T06:55:52.340Z,9084.00
2018-08-25T06:56:52.379Z,8348.00
2018-08-25T06:57:52.420Z,8112.00
2018-08-25T06:58:52.460Z,8324.00
2018-08-25T06:59:52.500Z,8692.00
2018-08-25T07:00:52.539Z,8956.00
2018-08-25T07:01:52.583Z,8828.00
2018-08-25T07:02:52.627Z,8244.00
2018-08-25T07:03:52.656Z,8008.00
2018-08-25T07:04:52.701Z,8072.00
2018-08-25T07:05:52.795Z,7816.00
2018-08-25T07:06:52.777Z,7808.00
2018-08-25T07:07:52.823Z,7900.00
2018-08-25T07:08:52.856Z,7840.00
2018-08-25T07:09:52.897Z,7576.00
2018-08-25T07:10:52.937Z,7244.00
2018-08-25T07:11:52.980Z,7360.00
2018-08-25T07:12:53.096Z,7804.00
2018-08-25T07:13:53.055Z,8088.00
2018-08-25T07:14:53.096Z,8312.00
2018-08-25T07:15:53.135Z,8736.00
2018-08-25T07:16:53.178Z,9004.00
2018-08-25T07:17:53.215Z,9108.00
2018-08-25T07:18:53.264Z,9128.00
2018-08-25T07:19:53.318Z,9236.00
2018-08-25T07:20:53.336Z,9700.00
2018-08-25T07:21:53.379Z,10056.00
2018-08-25T07:22:53.419Z,8516.00
2018-08-25T07:23:53.454Z,6324.00
2018-08-25T07:24:53.500Z,6048.00
2018-08-25T07:25:53.617Z,6848.00
2018-08-25T07:26:53.581Z,8568.00
2018-08-25T07:27:53.616Z,10948.00
2018-08-25T07:28:53.655Z,12860.00
2018-08-25T07:29:53.703Z,12140.00
2018-08-25T07:30:53.737Z,9532.00
2018-08-25T07:31:53.820Z,8176.00
2018-08-25T07:32:53.817Z,6128.00
2018-08-25T07:33:53.860Z,5012.00
2018-08-25T07:34:53.918Z,4644.00
2018-08-25T07:35:53.938Z,4320.00
2018-08-25T07:36:53.986Z,4348.00
2018-08-25T07:37:54.016Z,4544.00
2018-08-25T07:38:54.058Z,4800.00
2018-08-25T07:39:54.095Z,5080.00
2018-08-25T07:40:54.136Z,4948.00
2018-08-25T07:41:54.177Z,4808.00
2018-08-25T07:42:54.217Z,5160.00
2018-08-25T07:43:54.257Z,5236.00
2018-08-25T07:44:54.296Z,4684.00
2018-08-25T07:45:54.338Z,4316.00
2018-08-25T07:46:54.376Z,4136.00
2018-08-25T07:47:54.414Z,4176.00
2018-08-25T07:48:54.456Z,5356.00
2018-08-25T07:49:54.494Z,6552.00
2018-08-25T07:50:54.535Z,6144.00
2018-08-25T07:51:54.574Z,5540.00
2018-08-25T07:52:54.614Z,4972.00
2018-08-25T07:53:54.668Z,4364.00
2018-08-25T07:54:54.702Z,5100.00
2018-08-25T07:55:54.733Z,6084.00
2018-08-25T07:56:54.778Z,6736.00
2018-08-25T07:57:54.813Z,6792.00
2018-08-25T07:58:54.856Z,7596.00
2018-08-25T07:59:54.894Z,8024.00
2018-08-25T08:00:54.935Z,7436.00
2018-08-25T08:01:54.973Z,5940.00
2018-08-25T08:02:55.012Z,6212.00
2018-08-25T08:03:55.050Z,7768.00
2018-08-25T08:04:55.096Z,8320.00
2018-08-25T08:05:55.129Z,8032.00
2018-08-25T08:06:55.173Z,7536.00
2018-08-25T08:07:55.208Z,7472.00
2018-08-25T08:08:55.251Z,7816.00
2018-08-25T08:09:55.316Z,8080.00
2018-08-25T08:10:55.329Z,8212.00
2018-08-25T08:11:55.524Z,8396.00
2018-08-25T08:12:55.414Z,8676.00
2018-08-25T08:13:55.446Z,9208.00
2018-08-25T08:14:55.488Z,9920.00
2018-08-25T08:15:55.525Z,9772.00
2018-08-25T08:16:55.563Z,9784.00
2018-08-25T08:17:55.603Z,9568.00
2018-08-25T08:18:55.644Z,8836.00
2018-08-25T08:19:55.682Z,8296.00
2018-08-25T08:20:55.721Z,8004.00
2018-08-25T08:21:55.764Z,7960.00
2018-08-25T08:22:55.861Z,7928.00
2018-08-25T08:23:55.847Z,7900.00
2018-08-25T08:24:55.879Z,7896.00
2018-08-25T08:25:55.927Z,7696.00
2018-08-25T08:26:55.960Z,7528.00
2018-08-25T08:27:55.999Z,7380.00
2018-08-25T08:28:56.049Z,7336.00
2018-08-25T08:29:56.078Z,7612.00
2018-08-25T08:30:56.128Z,7956.00
2018-08-25T08:31:56.159Z,8184.00
2018-08-25T08:32:56.198Z,8112.00
2018-08-25T08:33:56.235Z,8116.00
2018-08-25T08:34:56.274Z,8016.00
2018-08-25T08:35:56.312Z,7984.00
2018-08-25T08:36:56.354Z,8272.00
2018-08-25T08:37:56.392Z,8508.00
2018-08-25T08:38:56.489Z,8696.00
2018-08-25T08:39:56.473Z,8868.00
2018-08-25T08:40:56.518Z,8904.00
2018-08-25T08:41:56.551Z,9240.00
2018-08-25T08:42:56.618Z,9484.00
2018-08-25T08:43:56.628Z,9844.00
2018-08-25T08:44:56.667Z,10112.00
2018-08-25T08:45:56.707Z,10352.00
2018-08-25T08:46:56.753Z,10500.00
2018-08-25T08:47:56.785Z,10052.00
2018-08-25T08:48:56.865Z,9220.00
2018-08-25T08:49:56.890Z,9088.00
2018-08-25T08:50:56.911Z,9168.00
2018-08-25T08:51:56.950Z,8868.00
2018-08-25T08:52:56.992Z,7608.00
2018-08-25T08:53:57.028Z,8000.00
2018-08-25T08:54:57.072Z,7148.00
2018-08-25T08:55:57.105Z,6740.00
2018-08-25T08:56:57.140Z,6252.00
2018-08-25T08:57:57.184Z,5096.00
2018-08-25T08:58:57.221Z,4416.00
2018-08-25T08:59:57.268Z,3728.00
2018-08-25T09:00:57.306Z,4296.00
2018-08-25T09:01:57.343Z,4812.00
2018-08-25T09:02:57.380Z,4260.00
2018-08-25T09:03:57.416Z,4984.00
2018-08-25T09:04:57.461Z,4832.00
2018-08-25T09:05:57.498Z,4856.00
2018-08-25T09:06:57.535Z,4688.00
2018-08-25T09:07:57.576Z,4056.00
2018-08-25T09:08:57.632Z,4160.00
2018-08-25T09:09:57.663Z,4848.00
2018-08-25T09:10:57.700Z,5752.00
2018-08-25T09:11:57.798Z,6800.00
2018-08-25T09:12:57.771Z,7372.00
2018-08-25T09:13:57.818Z,8068.00
2018-08-25T09:14:57.857Z,8152.00
2018-08-25T09:15:57.888Z,8992.00
2018-08-25T09:16:57.929Z,8036.00
2018-08-25T09:17:57.967Z,7492.00
2018-08-25T09:18:58.018Z,5856.00
2018-08-25T09:19:58.045Z,6664.00
2018-08-25T09:20:58.086Z,6768.00
2018-08-25T09:21:58.131Z,5648.00
2018-08-25T09:22:58.162Z,3864.00
2018-08-25T09:23:58.215Z,3856.00
2018-08-25T09:24:58.245Z,3876.00
2018-08-25T09:25:58.285Z,3944.00
2018-08-25T09:26:58.324Z,5084.00
2018-08-25T09:27:58.367Z,5916.00
2018-08-25T09:28:58.408Z,6096.00
2018-08-25T09:29:58.440Z,6240.00
2018-08-25T09:30:58.477Z,8188.00
2018-08-25T09:31:58.520Z,10920.00
2018-08-25T09:32:58.561Z,11376.00
2018-08-25T09:33:58.599Z,9180.00
2018-08-25T09:34:58.831Z,8468.00
2018-08-25T09:35:58.806Z,9712.00
2018-08-25T09:36:58.917Z,11756.00
2018-08-25T09:37:58.755Z,14824.00
2018-08-25T09:38:58.795Z,17888.00
2018-08-25T09:39:58.831Z,18496.00
2018-08-25T09:40:58.878Z,17792.00
2018-08-25T09:41:58.914Z,15392.00
2018-08-25T09:42:58.954Z,12360.00
2018-08-25T09:43:58.993Z,11612.00
2018-08-25T09:44:59.037Z,12800.00
2018-08-25T09:45:59.084Z,14920.00
2018-08-25T09:46:59.172Z,15020.00
2018-08-25T09:47:59.160Z,14504.00
2018-08-25T09:48:59.199Z,13164.00
2018-08-25T09:49:59.237Z,13672.00
2018-08-25T09:50:59.269Z,16448.00
2018-08-25T09:51:59.313Z,18400.00
2018-08-25T09:52:59.350Z,19392.00
2018-08-25T09:53:59.389Z,18592.00
2018-08-25T09:54:59.428Z,17216.00
2018-08-25T09:55:59.472Z,17856.00
2018-08-25T09:56:59.512Z,17920.00
2018-08-25T09:57:59.549Z,18176.00
2018-08-25T09:58:59.613Z,19040.00
2018-08-25T09:59:59.632Z,20800.00
2018-08-25T10:00:59.682Z,21664.00
2018-08-25T10:01:59.712Z,21312.00
2018-08-25T10:02:59.752Z,20896.00
2018-08-25T10:03:59.799Z,19584.00
2018-08-25T10:04:59.832Z,19328.00
2018-08-25T10:05:59.875Z,20096.00
2018-08-25T10:06:59.912Z,20704.00
2018-08-25T10:07:59.956Z,19552.00
2018-08-25T10:08:59.993Z,16512.00
2018-08-25T10:10:00.100Z,13752.00
2018-08-25T10:11:00.206Z,14136.00
2018-08-25T10:12:00.119Z,15376.00
2018-08-25T10:13:00.160Z,15308.00
2018-08-25T10:14:00.197Z,14992.00
2018-08-25T10:15:00.235Z,14752.00
2018-08-25T10:16:00.296Z,14392.00
2018-08-25T10:17:00.339Z,13924.00
2018-08-25T10:18:00.376Z,12852.00
2018-08-25T10:19:00.436Z,12564.00
2018-08-25T10:20:00.489Z,13672.00
2018-08-25T10:21:00.484Z,14452.00
2018-08-25T10:22:00.531Z,15620.00
2018-08-25T10:23:00.609Z,17952.00
2018-08-25T10:24:00.618Z,20064.00
2018-08-25T10:25:00.647Z,20160.00
2018-08-25T10:26:00.690Z,18912.00
2018-08-25T10:27:00.732Z,18432.00
2018-08-25T10:28:00.768Z,18720.00
2018-08-25T10:29:00.829Z,18816.00
2018-08-25T10:30:00.863Z,17504.00
2018-08-25T10:31:00.894Z,16448.00
2018-08-25T10:32:00.941Z,14488.00
2018-08-25T10:33:00.983Z,11448.00
2018-08-25T10:34:01.023Z,9668.00
2018-08-25T10:35:01.057Z,8076.00
2018-08-25T10:36:01.097Z,6588.00
2018-08-25T10:37:01.139Z,6832.00
2018-08-25T10:38:01.187Z,7956.00
2018-08-25T10:39:01.223Z,7876.00
2018-08-25T10:40:01.278Z,7688.00
2018-08-25T10:41:01.310Z,8164.00
2018-08-25T10:42:01.373Z,9600.00
2018-08-25T10:43:01.393Z,11232.00
2018-08-25T10:44:01.437Z,13240.00
2018-08-25T10:45:01.475Z,15440.00
2018-08-25T10:46:01.512Z,17184.00
2018-08-25T10:47:01.549Z,17984.00
2018-08-25T10:48:01.597Z,16960.00
2018-08-25T10:49:01.647Z,14484.00
2018-08-25T10:50:01.682Z,12752.00
2018-08-25T10:51:01.780Z,11664.00
2018-08-25T10:52:01.820Z,10908.00
2018-08-25T10:53:01.804Z,10760.00
2018-08-25T10:54:01.951Z,11028.00
2018-08-25T10:55:01.884Z,12192.00
2018-08-25T10:56:01.919Z,14028.00
2018-08-25T10:57:01.959Z,14216.00
2018-08-25T10:58:02.000Z,11980.00
2018-08-25T10:59:02.044Z,10216.00
2018-08-25T11:00:02.087Z,10672.00
2018-08-25T11:01:02.250Z,10688.00
2018-08-25T11:02:02.195Z,10360.00
2018-08-25T11:03:02.228Z,10856.00
2018-08-25T11:04:02.248Z,10652.00
2018-08-25T11:05:02.285Z,8868.00
2018-08-25T11:06:02.327Z,7040.00
2018-08-25T11:07:02.367Z,5696.00
2018-08-25T11:08:02.408Z,5092.00
2018-08-25T11:09:02.461Z,5036.00
2018-08-25T11:10:02.504Z,5368.00
2018-08-25T11:11:02.540Z,7116.00
2018-08-25T11:12:02.572Z,9120.00
2018-08-25T11:13:02.620Z,9844.00
2018-08-25T11:14:02.663Z,10620.00
2018-08-25T11:15:02.704Z,10792.00
2018-08-25T11:16:02.728Z,9916.00
2018-08-25T11:17:02.823Z,9380.00
2018-08-25T11:18:02.815Z,9356.00
2018-08-25T11:19:02.856Z,9648.00
2018-08-25T11:20:02.902Z,9832.00
2018-08-25T11:21:02.930Z,9436.00
2018-08-25T11:22:02.975Z,8424.00
2018-08-25T11:23:03.021Z,8368.00
2018-08-25T11:24:03.071Z,8240.00
2018-08-25T11:25:03.091Z,8272.00
2018-08-25T11:26:03.140Z,8296.00
2018-08-25T11:27:03.181Z,8344.00
2018-08-25T11:28:03.210Z,9060.00
2018-08-25T11:29:03.254Z,9916.00
2018-08-25T11:30:03.780Z,9888.00
2018-08-25T11:31:03.518Z,9812.00
2018-08-25T11:32:03.588Z,9964.00
2018-08-25T11:33:03.729Z,10020.00
2018-08-25T11:34:03.701Z,10376.00
2018-08-25T11:35:03.499Z,10408.00
2018-08-25T11:36:03.541Z,10400.00
2018-08-25T11:37:03.598Z,10596.00
2018-08-25T11:38:03.656Z,11088.00
2018-08-25T11:39:03.664Z,12200.00
2018-08-25T11:40:03.702Z,13464.00
2018-08-25T11:41:03.735Z,14276.00
2018-08-25T11:42:03.779Z,14832.00
2018-08-25T11:43:03.842Z,13792.00
2018-08-25T11:44:03.999Z,12752.00
2018-08-25T11:45:03.892Z,11704.00
2018-08-25T11:46:03.929Z,10904.00
2018-08-25T11:47:03.971Z,10604.00
2018-08-25T11:48:04.010Z,10776.00
2018-08-25T11:49:04.057Z,11636.00
2018-08-25T11:50:04.103Z,13284.00
2018-08-25T11:51:04.148Z,15264.00
2018-08-25T11:52:04.172Z,16704.00
2018-08-25T11:53:04.217Z,16992.00
2018-08-25T11:54:04.331Z,16928.00
2018-08-25T11:55:04.307Z,16544.00
2018-08-25T11:56:04.331Z,15276.00
2018-08-25T11:57:04.371Z,13812.00
2018-08-25T11:58:04.418Z,13364.00
2018-08-25T11:59:04.502Z,13832.00
2018-08-25T12:00:04.495Z,15196.00
2018-08-25T12:01:04.534Z,15296.00
2018-08-25T12:02:04.587Z,14820.00
2018-08-25T12:03:04.619Z,14068.00
2018-08-25T12:04:04.703Z,12828.00
2018-08-25T12:05:04.697Z,10956.00
2018-08-25T12:06:04.739Z,9396.00
2018-08-25T12:07:04.778Z,8972.00
2018-08-25T12:08:04.813Z,8220.00
2018-08-25T12:09:04.856Z,7420.00
2018-08-25T12:10:05.061Z,6848.00
2018-08-25T12:11:04.962Z,6460.00
2018-08-25T12:12:04.976Z,6308.00
2018-08-25T12:13:05.028Z,6324.00
2018-08-25T12:14:05.071Z,6556.00
2018-08-25T12:15:05.194Z,6736.00
2018-08-25T12:16:05.146Z,7340.00
2018-08-25T12:17:05.179Z,7400.00
2018-08-25T12:18:05.225Z,7092.00
2018-08-25T12:19:05.266Z,6532.00
2018-08-25T12:20:05.364Z,5756.00
2018-08-25T12:21:05.342Z,5100.00
2018-08-25T12:22:05.397Z,4396.00
2018-08-25T12:23:05.422Z,3712.00
2018-08-25T12:24:05.486Z,3232.00
2018-08-25T12:25:05.506Z,3012.00
2018-08-25T12:26:05.538Z,3100.00
2018-08-25T12:27:05.594Z,3500.00